• Join FlightAware (Why Join?)
  • Login
  • US Flag 
08:41PM EST


 

Airport Tracker/Info


-or-


 

Live Flight TrackerFlight Track Log ✈ N567MC ✈ 10-May-2014 ✈ MYNN / NAS - KPBI

Flight Track Log - Related Links

Times and Time Zones

All times are in EDT time to prevent confusion due to time zone crossing. See the N567MC flight status page for this flight to view local times or setup timezone preferences in your user account.

Time Position Orientation Groundspeed Altitude Reporting Facility
EDT Latitude Longitude Course Direction KTS MPH feet Rate Location/Type
05:57PM 25.0044 -77.4283 310° West 215 247 2,900  Level Miami Center
05:58PM 24.9631 -77.4697 222° Southwest 245 282 6,500 3,532 Climbing Miami Center
05:59PM 25.0181 -77.5428 310° West 274 315 10,200 3,387 Climbing Miami Center
06:00PM 25.0769 -77.6017 318° Northwest 279 321 13,500 2,855 Climbing Miami Center
06:01PM 25.1386 -77.6647 317° Northwest 295 339 16,100 2,516 Climbing Miami Center
06:02PM 25.2089 -77.7364 317° Northwest 310 357 18,700 2,468 Climbing Miami Center
06:03PM 25.2323 -77.7374 310° West  Level FlightAware Approximate
06:04PM 25.2747 -77.8042 317° Northwest 319 367 21,200  Level Miami Center
06:05PM 25.3442 -77.8783 316° Northwest 345 397 22,000 387 Climbing Miami Center
06:06PM 25.4125 -77.9742 308° West 392 451 22,000  Level Miami Center
06:07PM 25.4958 -78.0806 311° West 413 475 22,000  Level Miami Center
06:08PM 25.5639 -78.1831 306° West 412 474 22,000  Level Miami Center
06:09PM 25.6344 -78.2800 309° West 405 466 22,000  Level Miami Center
06:10PM 25.7122 -78.3881 309° West 405 466 22,000  Level Miami Center
06:11PM 25.7767 -78.4894 305° West 405 466 22,000  Level Miami Center
06:12PM 25.8358 -78.5953 302° West 404 465 22,000 -435 Level Miami Center
06:13PM 25.9011 -78.7111 302° West 403 464 21,100 -968 Descending Miami Center
06:14PM 25.9636 -78.8172 303° West 411 473 20,000 -532 Descending Miami Center
06:15PM 26.0133 -78.9061 302° West 398 458 20,000 -1,113 Level Miami Center
06:16PM 26.0825 -79.0261 303° West 390 449 17,700 -2,468 Descending Miami Center
06:17PM 26.1392 -79.1256 302° West 383 441 14,900 -2,661 Descending Miami Center
06:18PM 26.1931 -79.2219 302° West 373 429 12,200 -2,516 Descending Miami Center
06:19PM 26.2472 -79.3156 303° West 362 417 9,700 -2,390 Descending Miami Center
06:20PM 26.3003 -79.4089 302° West 309 356 7,300 -2,195 Descending Miami Center
06:21PM 26.3431 -79.4847 302° West 293 337 5,200 -1,113 Descending Miami Center
06:22PM 26.3844 -79.5581 302° West 284 327 5,000 -97 Descending Miami Center
06:23PM 26.4281 -79.6364 302° West 278 320 5,000  Level Miami Center
06:24PM 26.4686 -79.7086 302° West 279 321 5,000  Level Miami Center
06:25PM 26.5128 -79.7869 302° West 275 316 5,000  Level Miami Center
06:26PM 26.5536 -79.8600 302° West 278 320 5,000 -390 Level Miami Center
06:27PM 26.5808 -79.9383 291° West 272 313 4,200 -484 Descending Miami Center
06:28PM 26.6042 -80.0242 287° West 270 311 4,000 -435 Descending Miami Center
06:29PM 26.6147 -80.1011 279° West 247 284 3,300 -629 Descending Miami Center
06:30PM 26.6247 -80.1694 279° West 211 243 2,700 -387 Descending Miami Center
06:31PM 26.6331 -80.2242 280° West 188 216 2,500 -341 Descending Miami Center
06:32PM 26.6403 -80.2803 278° West 182 209 2,000 -244 Descending Miami Center
06:33PM 26.6711 -80.2964 335° Northwest 176 203 2,000  Level Miami Center
06:34PM 26.6883 -80.2450 69° East 176 203 2,000 -242 Level Miami Center
06:35PM 26.6867 -80.1967 92° East 158 182 1,500 -488 Descending Miami Center
06:36PM 26.6844 -80.1508 93° East 158 182 1,000 -492 Descending Miami Center
06:38PM 26.6832 -80.0956 North  Level Estimated
06:45PM 26.6832 -80.0956 North  Level Estimated